ADDS TAF Data INFO
IDs: Format: Raw Decoded Include METARs

Data at: 1535 UTC 18 Nov 2017

KPGA 181453Z AUTO 00000KT 10SM CLR 02/M10 A3040 RMK AO2 SLP288 T00221100 51020 TSNO

KPGA 181133Z 1812/1912 VRB06KT P6SM SKC